CheckWX is a tool to help pilots better visualize weather data.  It is not intended as a substitute for an official pre-flight weather briefing.

14:20:25 UTC

EGPF METAR
Glasgow International Airport
Glasgow, United Kingdom
Current

60 mins ago

EGPF 161320Z AUTO 22010KT 9999 BKN039 20/15 Q1017
Observed
Jul-16 @ 13:20 UTC
Wind
  • 220° at 10 KTS
Visibility
10,000+ meters
Flight Rules
VFR
Cloud Levels
  • Broken at 3,900' AGL
Temperature
20°C / 68°F
Dewpoint
15°C / 59°F
Humidity
73%
Altimeter
30.03" Hg
Pressure
1016.92 hPa
Previous

2 hours ago

EGPF 161250Z AUTO VRB03KT 9999 FEW023 OVC049 20/15 Q1017
Observed
Jul-16 @ 12:50 UTC
Wind
  • Variable at 3 KTS
Visibility
10,000+ meters
Flight Rules
VFR
Cloud Levels
  • Few at 2,300' AGL
  • Overcast at 4,900' AGL
Temperature
20°C / 68°F
Dewpoint
15°C / 59°F
Humidity
73%
Altimeter
30.03" Hg
Pressure
1016.92 hPa
Previous

2 hours ago

EGPF 161220Z AUTO 32006KT 280V350 9999 SCT022 SCT028 19/15 Q1017
Observed
Jul-16 @ 12:20 UTC
Wind
  • 320° at 6 KTS
Visibility
10,000+ meters
Flight Rules
VFR
Cloud Levels
  • Scattered at 2,200' AGL
  • Scattered at 2,800' AGL
Temperature
19°C / 66°F
Dewpoint
15°C / 59°F
Humidity
78%
Altimeter
30.03" Hg
Pressure
1016.92 hPa